Huvudsida
METAR-TAF:

METAR-TAF

Flygplatser :

Frosinone, Italien

latitud: 41-38N, longitud: 013-18E, höjd: 180 m

Aktuellt väderrapport

Denna rapport gjordes för 1 timme och 45 minuter sedan, klockan 17:55 UTC
Vind 6 kt från nordost
Temperatur 13°C
Fuktighet 33%
Tryck 1015 hPa
Sikt 10 km eller mer
Inga moln under 1 500 m eller inga cumulonimbus

METAR: LIRH 281755Z 04006KT CAVOK 13/M03 Q1015 RMK SKC MON INVIS VAR RAPID VIS MIN 9999 WIND THR16 /////KT BLU

Tid: 20:40 (19:40 UTC)

Väderprognos

Denna rapport gjordes för 5 timmar och 40 minuter sedan, klockan 14:00 UTC
Prognos gäller från 28 kl. 15 UTC till 28 kl. 24 UTC
Vind 10 kt från nordväst
Sikt 10 km eller mer
Inga moln under 1 500 m eller inga cumulonimbus
Blir
från 28 kl. 18 UTC till 28 kl. 20 UTC
Vind 3 kt varierande vindriktning

TAF: LIRH 281400Z 2815/2824 31010KT CAVOK BECMG 2818/2820 VRB03KT

Aktuella väderrapporter och prognoser från 4000 flygplatser (METAR- och TAF-rapporter).

De tillgängliga stationerna syns som gula och röda prickar på kartan.

För musen över prickarna för att se namnen på stationerna.

Klicka sedan för att få väderrapporter och prognoser.

För att ändra kartan: Klicka på de gröna knapparna med ett svart kors på för att zooma in; den gröna knappen med ett streck på för att zooma ut; eller på de gröna pilarna för angränsande kartor.


METAR-TAF: